createdAt,value
2023-04-20T00:04:59.637Z,2.4
2023-04-20T00:09:59.501Z,2.4
2023-04-20T00:14:59.602Z,2.7
2023-04-20T00:19:59.517Z,2.3
2023-04-20T00:24:59.581Z,2.3
2023-04-20T00:29:59.506Z,2.4
2023-04-20T00:34:59.607Z,2.4
2023-04-20T00:39:59.513Z,2.4
2023-04-20T00:44:59.611Z,2
2023-04-20T00:49:59.524Z,1.7
2023-04-20T00:54:59.573Z,2.5
2023-04-20T00:59:59.523Z,2.6
2023-04-20T01:04:59.614Z,2.7
2023-04-20T01:09:59.503Z,2.7
2023-04-20T01:14:59.605Z,1.9
2023-04-20T01:19:59.537Z,1.9
2023-04-20T01:24:59.575Z,2.5
2023-04-20T01:29:59.511Z,2.4
2023-04-20T01:34:59.574Z,2.2
2023-04-20T01:39:59.587Z,2.2
2023-04-20T01:44:59.617Z,2.4
2023-04-20T01:49:59.520Z,2.3
2023-04-20T01:54:59.612Z,2.5
2023-04-20T01:59:59.508Z,2.2
2023-04-20T02:04:59.588Z,3.1
2023-04-20T02:09:59.521Z,3.1
2023-04-20T02:14:59.605Z,2.8
2023-04-20T02:19:59.518Z,2.7
2023-04-20T02:24:59.639Z,2.9
2023-04-20T02:29:59.503Z,2.9
2023-04-20T02:34:59.611Z,2.8
2023-04-20T02:39:59.537Z,2.8
2023-04-20T02:44:59.585Z,3.3
2023-04-20T02:49:59.529Z,2.2
2023-04-20T02:54:59.591Z,2.5
2023-04-20T02:59:59.515Z,2.3
2023-04-20T03:04:59.650Z,2.7
2023-04-20T03:09:59.541Z,2.7
2023-04-20T03:14:59.598Z,2.9
2023-04-20T03:19:59.515Z,2.1
2023-04-20T03:24:59.597Z,2
2023-04-20T03:29:59.532Z,2.4
2023-04-20T03:34:59.594Z,1.9
2023-04-20T03:39:59.554Z,1.9
2023-04-20T03:44:59.584Z,2.1
2023-04-20T03:49:59.534Z,2.7
2023-04-20T03:54:59.660Z,2.2
2023-04-20T03:59:59.523Z,2
2023-04-20T04:04:59.731Z,2.7
2023-04-20T04:09:59.562Z,2.7
2023-04-20T04:14:59.646Z,2.6
2023-04-20T04:19:59.547Z,2.1
2023-04-20T04:24:59.660Z,2.3
2023-04-20T04:29:59.544Z,2.3
2023-04-20T04:34:59.656Z,2.3
2023-04-20T04:39:59.549Z,2.3
2023-04-20T04:44:59.618Z,2.3
2023-04-20T04:49:59.561Z,2.7
2023-04-20T04:54:59.675Z,2.1
2023-04-20T04:59:59.597Z,2.1
2023-04-20T05:04:59.698Z,2.2
2023-04-20T05:09:59.577Z,2.2
2023-04-20T05:14:59.639Z,1.5
2023-04-20T05:19:59.592Z,1.9
2023-04-20T05:24:59.639Z,3.3
2023-04-20T05:30:12.737Z,3.4
2023-04-20T05:34:59.646Z,2.4
2023-04-20T05:39:59.608Z,2.4
2023-04-20T05:44:59.701Z,2.8
2023-04-20T05:49:59.620Z,3
2023-04-20T05:54:59.716Z,4.1
2023-04-20T05:59:59.616Z,4.2
2023-04-20T06:04:59.958Z,3.4
2023-04-20T06:09:59.612Z,3.4
2023-04-20T06:14:59.719Z,3.4
2023-04-20T06:19:59.622Z,3.8
2023-04-20T06:24:59.723Z,3.1
2023-04-20T06:29:59.615Z,3.6
2023-04-20T06:34:59.682Z,3.5
2023-04-20T06:39:59.619Z,3.5
2023-04-20T06:44:59.743Z,3.1
2023-04-20T06:49:59.608Z,2.9
2023-04-20T06:54:59.708Z,3.1
2023-04-20T06:59:59.646Z,4.6
2023-04-20T07:04:59.767Z,3.2
2023-04-20T07:09:59.623Z,3.2
2023-04-20T07:14:59.698Z,2.7
2023-04-20T07:19:59.627Z,3.2
2023-04-20T07:24:59.705Z,3.3
2023-04-20T07:29:59.632Z,4
2023-04-20T07:34:59.698Z,4
2023-04-20T07:39:59.638Z,4
2023-04-20T07:44:59.708Z,2.8
2023-04-20T07:49:59.629Z,3.1
2023-04-20T07:54:59.791Z,3.2
2023-04-20T08:04:59.935Z,2.9
2023-04-20T08:09:59.640Z,2.9
2023-04-20T08:14:59.704Z,2.7
2023-04-20T08:19:59.656Z,1.7
2023-04-20T08:24:59.704Z,2.4
2023-04-20T08:29:59.626Z,2.1
2023-04-20T08:34:59.697Z,2.4
2023-04-20T08:39:59.666Z,2.4
2023-04-20T08:44:59.760Z,1.9
2023-04-20T08:49:59.634Z,2
2023-04-20T08:54:59.706Z,1.7
2023-04-20T08:59:59.631Z,1.5
2023-04-20T09:04:59.739Z,1.7
2023-04-20T09:09:59.645Z,1.7
2023-04-20T09:14:59.738Z,1.5
2023-04-20T09:19:59.608Z,1.5
2023-04-20T09:24:59.699Z,1.6
2023-04-20T09:29:59.646Z,1.8
2023-04-20T09:34:59.705Z,1.6
2023-04-20T09:39:59.618Z,1.6
2023-04-20T09:44:59.739Z,1.8
2023-04-20T09:50:04.473Z,1.2
2023-04-20T09:54:59.742Z,1.4
2023-04-20T09:59:59.591Z,1
2023-04-20T10:04:59.615Z,1.2
2023-04-20T10:09:59.628Z,1.2
2023-04-20T10:14:59.705Z,1.1
2023-04-20T10:19:59.640Z,1.1
2023-04-20T10:24:59.827Z,1
2023-04-20T10:29:59.668Z,1.1
2023-04-20T10:34:59.803Z,1.1
2023-04-20T10:39:59.656Z,1.1
2023-04-20T10:44:59.635Z,1.4
2023-04-20T10:49:59.647Z,1.6
2023-04-20T10:54:59.769Z,1.4
2023-04-20T10:59:59.636Z,1.3
2023-04-20T11:04:59.667Z,1.1
2023-04-20T11:09:59.646Z,1.1
2023-04-20T11:14:59.666Z,1.4
2023-04-20T11:24:59.766Z,1.6
2023-04-20T11:29:59.650Z,2.2
2023-04-20T11:35:06.530Z,1.8
2023-04-20T11:39:59.665Z,1.8
2023-04-20T11:44:59.732Z,1.4
2023-04-20T11:49:59.650Z,2.1
2023-04-20T11:54:59.636Z,1.9
2023-04-20T11:59:59.616Z,1.6
2023-04-20T12:04:59.830Z,1.3
2023-04-20T12:09:59.652Z,1.3
2023-04-20T12:14:59.727Z,1.4
2023-04-20T12:19:59.649Z,1.1
2023-04-20T12:24:59.735Z,1.5
2023-04-20T12:29:59.690Z,1.4
2023-04-20T12:34:59.734Z,1.1
2023-04-20T12:39:59.667Z,1.1
2023-04-20T12:44:59.774Z,1.5
2023-04-20T12:49:59.697Z,1.3
2023-04-20T12:54:59.774Z,1.7
2023-04-20T12:59:59.646Z,1.2
2023-04-20T13:04:59.769Z,1.4
2023-04-20T13:09:59.705Z,1.4
2023-04-20T13:14:59.787Z,1.2
2023-04-20T13:19:59.692Z,1.2
2023-04-20T13:24:59.741Z,1.3
2023-04-20T13:29:59.690Z,1.1
2023-04-20T13:34:59.748Z,0.9
2023-04-20T13:39:59.691Z,0.9
2023-04-20T13:44:59.793Z,1.1
2023-04-20T13:49:59.718Z,1.4
2023-04-20T13:54:59.760Z,0.9
2023-04-20T13:59:59.702Z,0.9
2023-04-20T14:04:59.821Z,0.9
2023-04-20T14:09:59.690Z,1
2023-04-20T14:14:59.797Z,0.8
2023-04-20T14:19:59.684Z,0.8
2023-04-20T14:29:59.693Z,1
2023-04-20T14:34:59.754Z,1
2023-04-20T14:39:59.697Z,0.8
2023-04-20T14:44:59.793Z,0.9
2023-04-20T14:49:59.691Z,1
2023-04-20T14:54:59.786Z,1.4
2023-04-20T14:59:59.701Z,1.6
2023-04-20T15:05:00.171Z,1.6
2023-04-20T15:09:59.689Z,1.4
2023-04-20T15:14:59.775Z,1.4
2023-04-20T15:19:59.708Z,1.4
2023-04-20T15:24:59.767Z,1.4
2023-04-20T15:29:59.741Z,2.3
2023-04-20T15:34:59.803Z,2.3
2023-04-20T15:39:59.705Z,1.8
2023-04-20T15:44:59.771Z,1.8
2023-04-20T15:49:59.720Z,1.6
2023-04-20T15:54:59.823Z,2.3
2023-04-20T15:59:59.725Z,2.4
2023-04-20T16:04:59.926Z,2.4
2023-04-20T16:09:59.695Z,2
2023-04-20T16:14:59.780Z,2
2023-04-20T16:19:59.706Z,1.9
2023-04-20T16:24:59.775Z,2.1
2023-04-20T16:29:59.700Z,2
2023-04-20T16:34:59.781Z,2
2023-04-20T16:39:59.722Z,2.1
2023-04-20T16:44:59.819Z,1.9
2023-04-20T16:49:59.696Z,1.9
2023-04-20T16:54:59.780Z,2.7
2023-04-20T16:59:59.710Z,2.4
2023-04-20T17:04:59.775Z,2.4
2023-04-20T17:09:59.726Z,2.6
2023-04-20T17:14:59.796Z,2.7
2023-04-20T17:19:59.700Z,2.6
2023-04-20T17:24:59.819Z,2.9
2023-04-20T17:29:59.708Z,2.6
2023-04-20T17:34:59.862Z,2.6
2023-04-20T17:39:59.718Z,2.6
2023-04-20T17:44:59.787Z,2.9
2023-04-20T17:49:59.707Z,4.3
2023-04-20T17:54:59.787Z,6.1
2023-04-20T17:59:59.722Z,3.1
2023-04-20T18:04:59.901Z,3.1
2023-04-20T18:09:59.722Z,3.5
2023-04-20T18:14:59.786Z,3.2
2023-04-20T18:19:59.760Z,3.3
2023-04-20T18:24:59.829Z,3.5
2023-04-20T18:29:59.747Z,4
2023-04-20T18:34:59.783Z,4
2023-04-20T18:39:59.702Z,3.8
2023-04-20T18:44:59.839Z,3.9
2023-04-20T18:49:59.729Z,3.1
2023-04-20T18:54:59.825Z,4.2
2023-04-20T18:59:59.719Z,4.1
2023-04-20T19:04:59.829Z,4.1
2023-04-20T19:09:59.733Z,3.8
2023-04-20T19:14:59.794Z,4.4
2023-04-20T19:19:59.735Z,3.4
2023-04-20T19:24:59.839Z,3.4
2023-04-20T19:29:59.742Z,3.5
2023-04-20T19:34:59.793Z,3.5
2023-04-20T19:39:59.751Z,3.7
2023-04-20T19:44:59.828Z,4.6
2023-04-20T19:50:01.055Z,3.6
2023-04-20T19:54:59.797Z,3.3
2023-04-20T19:59:59.718Z,4.4
2023-04-20T20:04:59.827Z,4.4
2023-04-20T20:09:59.741Z,4.3
2023-04-20T20:14:59.837Z,5.2
2023-04-20T20:19:59.726Z,3.9
2023-04-20T20:24:59.828Z,3.6
2023-04-20T20:29:59.732Z,4.1
2023-04-20T20:34:59.839Z,4.1
2023-04-20T20:39:59.730Z,4.4
2023-04-20T20:44:59.843Z,4.2
2023-04-20T20:49:59.742Z,3.8
2023-04-20T20:54:59.799Z,3.6
2023-04-20T20:59:59.752Z,4.6
2023-04-20T21:04:59.806Z,4.6
2023-04-20T21:09:59.734Z,4.8
2023-04-20T21:14:59.848Z,4.6
2023-04-20T21:19:59.751Z,4.3
2023-04-20T21:24:59.803Z,3.8
2023-04-20T21:29:59.750Z,4.1
2023-04-20T21:34:59.845Z,4.1
2023-04-20T21:39:59.750Z,4.1
2023-04-20T21:44:59.856Z,4.4
2023-04-20T21:49:59.763Z,4.4
2023-04-20T21:54:59.845Z,4.3
2023-04-20T21:59:59.762Z,4.2
2023-04-20T22:04:59.909Z,4.2
2023-04-20T22:09:59.750Z,4.8
2023-04-20T22:14:59.836Z,4.6
2023-04-20T22:19:59.758Z,4.4
2023-04-20T22:24:59.834Z,5.1
2023-04-20T22:29:59.769Z,5.7
2023-04-20T22:34:59.867Z,5.7
2023-04-20T22:39:59.773Z,7.2
2023-04-20T22:44:59.828Z,4.7
2023-04-20T22:49:59.762Z,4.6
2023-04-20T22:54:59.821Z,5.7
2023-04-20T22:59:59.764Z,6.1
2023-04-20T23:04:59.862Z,6.1
2023-04-20T23:09:59.741Z,5.1
2023-04-20T23:14:59.820Z,5.3
2023-04-20T23:19:59.769Z,5.7
2023-04-20T23:24:59.829Z,4.9
2023-04-20T23:29:59.759Z,5.4
2023-04-20T23:34:59.871Z,5.4
2023-04-20T23:39:59.761Z,5.4
2023-04-20T23:44:59.843Z,5.9
2023-04-20T23:49:59.765Z,4.8
2023-04-20T23:54:59.852Z,5.7
2023-04-20T23:59:59.768Z,5.1
